createdAt,value
2017-08-01T00:00:03.183Z,0
2017-08-01T00:01:03.220Z,0
2017-08-01T00:02:03.266Z,0
2017-08-01T00:03:03.259Z,0
2017-08-01T00:04:02.742Z,0
2017-08-01T00:05:03.018Z,0
2017-08-01T00:06:03.335Z,0
2017-08-01T00:07:03.359Z,0
2017-08-01T00:08:03.400Z,0
2017-08-01T00:09:03.420Z,0
2017-08-01T00:10:03.137Z,0
2017-08-01T00:11:03.163Z,0
2017-08-01T00:12:03.502Z,0
2017-08-01T00:13:02.894Z,0
2017-08-01T00:14:03.571Z,0
2017-08-01T00:15:03.581Z,0
2017-08-01T00:16:03.322Z,0
2017-08-01T00:17:03.636Z,0
2017-08-01T00:18:03.356Z,0
2017-08-01T00:19:03.848Z,0
2017-08-01T00:20:03.085Z,0
2017-08-01T00:21:03.449Z,0
2017-08-01T00:22:03.135Z,0
2017-08-01T00:23:03.805Z,0
2017-08-01T00:24:03.832Z,0
2017-08-01T00:25:03.845Z,0
2017-08-01T00:26:03.567Z,0
2017-08-01T00:27:03.582Z,0
2017-08-01T00:28:03.603Z,0
2017-08-01T00:29:03.629Z,0
2017-08-01T00:30:03.020Z,0
2017-08-01T00:31:04.002Z,0
2017-08-01T00:32:04.009Z,0
2017-08-01T00:33:04.035Z,0
2017-08-01T00:34:03.750Z,0
2017-08-01T00:35:04.085Z,0
2017-08-01T00:36:04.115Z,0
2017-08-01T00:37:04.138Z,0
2017-08-01T00:38:03.859Z,0
2017-08-01T00:39:03.874Z,0
2017-08-01T00:40:03.912Z,0
2017-08-01T00:41:04.247Z,0
2017-08-01T00:42:04.272Z,0
2017-08-01T00:43:03.985Z,0
2017-08-01T00:44:04.009Z,0
2017-08-01T00:45:04.354Z,0
2017-08-01T00:46:04.072Z,0
2017-08-01T00:47:04.088Z,0
2017-08-01T00:48:04.436Z,0
2017-08-01T00:49:04.140Z,0
2017-08-01T00:50:04.479Z,0
2017-08-01T00:51:04.508Z,0
2017-08-01T00:52:04.541Z,0
2017-08-01T00:53:04.250Z,0
2017-08-01T00:54:04.594Z,0
2017-08-01T00:55:04.611Z,0
2017-08-01T00:56:04.645Z,0
2017-08-01T00:57:04.664Z,0
2017-08-01T00:58:04.696Z,0
2017-08-01T00:59:04.402Z,0
2017-08-01T01:00:04.434Z,0
2017-08-01T01:01:04.783Z,0
2017-08-01T01:02:04.803Z,0
2017-08-01T01:03:04.833Z,0
2017-08-01T01:04:04.913Z,0
2017-08-01T01:05:04.892Z,0
2017-08-01T01:06:04.901Z,0
2017-08-01T01:07:04.949Z,0
2017-08-01T01:08:04.953Z,0
2017-08-01T01:09:04.656Z,0
2017-08-01T01:10:05.082Z,0
2017-08-01T01:11:04.727Z,0
2017-08-01T01:12:04.750Z,0
2017-08-01T01:13:04.778Z,0
2017-08-01T01:14:05.108Z,0
2017-08-01T01:15:04.819Z,0
2017-08-01T01:16:04.857Z,0
2017-08-01T01:17:04.875Z,0
2017-08-01T01:18:04.908Z,0
2017-08-01T01:19:04.931Z,0
2017-08-01T01:20:05.023Z,0
2017-08-01T01:21:04.669Z,0
2017-08-01T01:22:04.999Z,0
2017-08-01T01:23:05.032Z,0
2017-08-01T01:24:05.380Z,0
2017-08-01T01:25:05.111Z,0
2017-08-01T01:26:05.137Z,0
2017-08-01T01:27:05.558Z,0
2017-08-01T01:28:05.744Z,0
2017-08-01T01:29:05.184Z,0
2017-08-01T01:30:04.909Z,0
2017-08-01T01:31:05.267Z,0
2017-08-01T01:32:05.288Z,0
2017-08-01T01:33:05.302Z,0
2017-08-01T01:34:05.665Z,0
2017-08-01T01:35:05.356Z,0
2017-08-01T01:36:05.810Z,0
2017-08-01T01:37:05.532Z,0
2017-08-01T01:38:05.102Z,0
2017-08-01T01:39:06.007Z,0
2017-08-01T01:40:05.808Z,0
2017-08-01T01:41:05.556Z,0
2017-08-01T01:42:06.016Z,0
2017-08-01T01:43:05.554Z,0
2017-08-01T01:44:06.015Z,0
2017-08-01T01:45:05.291Z,0
2017-08-01T01:46:05.644Z,0
2017-08-01T01:47:06.151Z,0
2017-08-01T01:48:06.200Z,0
2017-08-01T01:49:06.162Z,0
2017-08-01T01:50:05.732Z,0
2017-08-01T01:51:06.158Z,0
2017-08-01T01:52:05.695Z,0
2017-08-01T01:53:06.144Z,0
2017-08-01T01:54:05.852Z,0
2017-08-01T01:55:05.853Z,0
2017-08-01T01:56:06.349Z,0
2017-08-01T01:57:06.257Z,0
2017-08-01T01:58:05.743Z,0
2017-08-01T01:59:06.280Z,0
2017-08-01T02:00:05.679Z,0
2017-08-01T02:01:06.336Z,0
2017-08-01T02:02:06.389Z,0
2017-08-01T02:03:06.398Z,0
2017-08-01T02:04:06.092Z,0
2017-08-01T02:05:06.144Z,0
2017-08-01T02:06:06.151Z,0
2017-08-01T02:07:06.179Z,0
2017-08-01T02:08:06.197Z,0
2017-08-01T02:09:07.183Z,0
2017-08-01T02:10:06.247Z,0
2017-08-01T02:11:06.279Z,0
2017-08-01T02:12:06.305Z,0
2017-08-01T02:13:06.364Z,0
2017-08-01T02:14:06.355Z,0
2017-08-01T02:15:06.384Z,0
2017-08-01T02:16:06.407Z,0
2017-08-01T02:17:06.112Z,0
2017-08-01T02:18:06.905Z,0
2017-08-01T02:19:06.798Z,0
2017-08-01T02:20:06.191Z,0
2017-08-01T02:21:06.212Z,0
2017-08-01T02:22:06.240Z,0
2017-08-01T02:23:06.588Z,0
2017-08-01T02:24:06.922Z,0
2017-08-01T02:25:06.954Z,0
2017-08-01T02:26:06.341Z,0
2017-08-01T02:27:06.684Z,0
2017-08-01T02:28:06.391Z,0
2017-08-01T02:29:06.736Z,0
2017-08-01T02:30:07.075Z,0
2017-08-01T02:31:07.121Z,0
2017-08-01T02:32:07.146Z,0
2017-08-01T02:33:06.840Z,0
2017-08-01T02:34:07.179Z,0
2017-08-01T02:35:07.204Z,0
2017-08-01T02:36:07.239Z,0
2017-08-01T02:37:07.260Z,0
2017-08-01T02:38:06.348Z,0
2017-08-01T02:39:06.992Z,0
2017-08-01T02:40:07.349Z,0
2017-08-01T02:41:06.411Z,0
2017-08-01T02:42:07.497Z,0
2017-08-01T02:43:07.526Z,0
2017-08-01T02:44:07.521Z,0
2017-08-01T02:45:07.563Z,0
2017-08-01T02:46:07.254Z,0
2017-08-01T02:47:07.722Z,0
2017-08-01T02:48:07.598Z,0
2017-08-01T02:49:07.594Z,0
2017-08-01T02:50:07.381Z,0
2017-08-01T02:51:07.624Z,0
2017-08-01T02:52:07.213Z,0
2017-08-01T02:53:07.536Z,0
2017-08-01T02:54:07.699Z,0
2017-08-01T02:55:07.532Z,0
2017-08-01T02:56:07.745Z,0
2017-08-01T02:57:07.451Z,0
2017-08-01T02:58:07.797Z,0
2017-08-01T02:59:07.835Z,0
2017-08-01T03:00:06.974Z,0
2017-08-01T03:01:07.368Z,0
2017-08-01T03:02:07.263Z,0
2017-08-01T03:03:07.604Z,0
2017-08-01T03:04:07.336Z,0
2017-08-01T03:05:07.652Z,0
2017-08-01T03:06:08.073Z,0
2017-08-01T03:07:08.027Z,0
2017-08-01T03:08:07.409Z,0
2017-08-01T03:09:07.752Z,0
2017-08-01T03:10:07.782Z,0
2017-08-01T03:11:07.812Z,0
2017-08-01T03:12:07.904Z,0
2017-08-01T03:13:08.224Z,0
2017-08-01T03:14:08.205Z,0
2017-08-01T03:15:07.913Z,0
2017-08-01T03:16:07.960Z,0
2017-08-01T03:17:08.302Z,0
2017-08-01T03:18:08.129Z,0
2017-08-01T03:19:07.804Z,0
2017-08-01T03:20:08.483Z,0
2017-08-01T03:21:08.163Z,0
2017-08-01T03:22:08.300Z,0
2017-08-01T03:23:08.505Z,0
2017-08-01T03:24:08.616Z,0
2017-08-01T03:25:07.861Z,0
2017-08-01T03:26:07.879Z,0
2017-08-01T03:27:07.920Z,0
2017-08-01T03:28:08.250Z,0
2017-08-01T03:29:08.578Z,0
2017-08-01T03:30:08.608Z,0
2017-08-01T03:31:08.646Z,0
2017-08-01T03:32:08.679Z,0
2017-08-01T03:33:08.695Z,0
2017-08-01T03:34:08.427Z,0
2017-08-01T03:35:08.099Z,0
2017-08-01T03:36:08.851Z,0
2017-08-01T03:37:08.875Z,0
2017-08-01T03:38:08.558Z,0
2017-08-01T03:39:08.828Z,0
2017-08-01T03:40:08.870Z,0
2017-08-01T03:41:08.371Z,0
2017-08-01T03:42:08.916Z,0
2017-08-01T03:43:08.629Z,0
2017-08-01T03:44:08.962Z,0
2017-08-01T03:45:08.673Z,0
2017-08-01T03:46:08.832Z,0
2017-08-01T03:47:08.936Z,0
2017-08-01T03:48:09.245Z,0
2017-08-01T03:49:08.891Z,0
2017-08-01T03:50:08.941Z,0
2017-08-01T03:51:09.295Z,0
2017-08-01T03:52:08.944Z,0
2017-08-01T03:54:09.341Z,0
2017-08-01T03:55:09.080Z,0
2017-08-01T03:56:09.081Z,0
2017-08-01T03:57:09.416Z,0
2017-08-01T03:58:09.414Z,0
2017-08-01T03:59:08.715Z,0
2017-08-01T04:00:09.429Z,0
2017-08-01T04:01:09.467Z,0
2017-08-01T04:02:09.490Z,0
2017-08-01T04:03:09.449Z,0
2017-08-01T04:04:09.598Z,0
2017-08-01T04:05:09.600Z,0
2017-08-01T04:06:09.695Z,0
2017-08-01T04:07:09.293Z,0
2017-08-01T04:08:09.595Z,0
2017-08-01T04:09:09.598Z,0
2017-08-01T04:10:09.443Z,0
2017-08-01T04:11:09.784Z,0
2017-08-01T04:12:09.758Z,0
2017-08-01T04:13:09.695Z,0
2017-08-01T04:14:09.771Z,0
2017-08-01T04:15:08.951Z,0
2017-08-01T04:16:09.767Z,0
2017-08-01T04:17:09.565Z,0
2017-08-01T04:18:09.607Z,0
2017-08-01T04:19:09.918Z,0
2017-08-01T04:20:09.904Z,0
2017-08-01T04:21:09.938Z,0
2017-08-01T04:22:09.863Z,0
2017-08-01T04:23:09.984Z,0
2017-08-01T04:24:09.658Z,0
2017-08-01T04:25:09.994Z,0
2017-08-01T04:26:10.024Z,0
2017-08-01T04:27:09.750Z,0
2017-08-01T04:28:09.851Z,0
2017-08-01T04:29:09.850Z,0
2017-08-01T04:30:09.577Z,0
2017-08-01T04:31:10.144Z,0
2017-08-01T04:32:10.174Z,0
2017-08-01T04:33:09.929Z,0
2017-08-01T04:34:10.220Z,0
2017-08-01T04:35:08.990Z,0
2017-08-01T04:36:09.649Z,0
2017-08-01T04:37:10.555Z,0
2017-08-01T04:38:10.325Z,0
2017-08-01T04:39:10.033Z,0
2017-08-01T04:40:10.106Z,0
2017-08-01T04:41:10.390Z,0
2017-08-01T04:42:10.464Z,0
2017-08-01T04:43:10.442Z,0
2017-08-01T04:44:10.165Z,0
2017-08-01T04:45:10.490Z,0
2017-08-01T04:46:10.529Z,0
2017-08-01T04:47:10.229Z,0
2017-08-01T04:48:09.619Z,0
2017-08-01T04:49:09.970Z,0
2017-08-01T04:50:10.622Z,0
2017-08-01T04:51:10.112Z,0
2017-08-01T04:52:10.487Z,0
2017-08-01T04:53:10.696Z,0
2017-08-01T04:54:10.725Z,0
2017-08-01T04:55:10.741Z,0
2017-08-01T04:56:10.773Z,0
2017-08-01T04:57:10.173Z,0
2017-08-01T04:58:10.853Z,0
2017-08-01T04:59:10.546Z,0
2017-08-01T05:00:10.703Z,0
2017-08-01T05:01:11.037Z,0
2017-08-01T05:02:10.693Z,0
2017-08-01T05:03:10.940Z,0
2017-08-01T05:04:10.570Z,0
2017-08-01T05:05:10.995Z,0
2017-08-01T05:06:10.771Z,0
2017-08-01T05:07:10.735Z,0
2017-08-01T05:08:11.192Z,0
2017-08-01T05:09:11.110Z,0
2017-08-01T05:10:11.136Z,0
2017-08-01T05:11:11.324Z,0
2017-08-01T05:12:10.544Z,0
2017-08-01T05:13:11.199Z,0
2017-08-01T05:14:10.597Z,0
2017-08-01T05:15:11.334Z,0
2017-08-01T05:16:11.359Z,0
2017-08-01T05:17:11.044Z,0
2017-08-01T05:18:11.039Z,0
2017-08-01T05:19:11.148Z,0
2017-08-01T05:20:11.076Z,0
2017-08-01T05:21:11.417Z,0
2017-08-01T05:22:11.124Z,0
2017-08-01T05:23:11.448Z,0
2017-08-01T05:24:11.160Z,0
2017-08-01T05:25:11.495Z,0
2017-08-01T05:26:11.522Z,0
2017-08-01T05:27:10.912Z,0
2017-08-01T05:28:10.949Z,5
2017-08-01T05:29:10.961Z,5
2017-08-01T05:30:10.985Z,10
2017-08-01T05:31:11.322Z,15
2017-08-01T05:32:11.672Z,10
2017-08-01T05:33:11.390Z,10
2017-08-01T05:34:11.730Z,10
2017-08-01T05:35:11.122Z,10
2017-08-01T05:36:11.487Z,5
2017-08-01T05:37:11.892Z,5
2017-08-01T05:38:11.610Z,0
2017-08-01T05:39:11.849Z,0
2017-08-01T05:40:11.040Z,0
2017-08-01T05:41:11.571Z,0
2017-08-01T05:42:11.736Z,0
2017-08-01T05:43:11.734Z,0
2017-08-01T05:44:11.335Z,0
2017-08-01T05:45:11.778Z,0
2017-08-01T05:46:11.871Z,0
2017-08-01T05:47:12.197Z,5
2017-08-01T05:48:12.192Z,5
2017-08-01T05:49:12.286Z,5
2017-08-01T05:50:12.382Z,10
2017-08-01T05:51:12.268Z,10
2017-08-01T05:52:12.165Z,10
2017-08-01T05:53:11.998Z,10
2017-08-01T05:54:12.023Z,10
2017-08-01T05:55:12.340Z,10
2017-08-01T05:56:12.021Z,10
2017-08-01T05:57:12.378Z,15
2017-08-01T05:58:12.331Z,10
2017-08-01T05:59:11.430Z,5
2017-08-01T06:00:12.095Z,5
2017-08-01T06:01:12.393Z,5
2017-08-01T06:02:12.097Z,10
2017-08-01T06:03:12.442Z,10
2017-08-01T06:04:12.463Z,5
2017-08-01T06:05:12.271Z,5
2017-08-01T06:06:12.273Z,5
2017-08-01T06:07:12.270Z,5
2017-08-01T06:08:12.382Z,5
2017-08-01T06:09:12.584Z,0
2017-08-01T06:10:11.367Z,0
2017-08-01T06:11:12.652Z,0
2017-08-01T06:12:12.349Z,0
2017-08-01T06:13:12.372Z,0
2017-08-01T06:14:12.400Z,0
2017-08-01T06:15:12.732Z,0
2017-08-01T06:16:12.457Z,0
2017-08-01T06:17:12.780Z,5
2017-08-01T06:18:12.180Z,5
2017-08-01T06:19:12.839Z,5
2017-08-01T06:20:12.852Z,5
2017-08-01T06:21:12.880Z,5
2017-08-01T06:22:12.956Z,10
2017-08-01T06:23:13.065Z,10
2017-08-01T06:24:12.328Z,15
2017-08-01T06:25:13.016Z,15
2017-08-01T06:26:13.031Z,10
2017-08-01T06:27:12.722Z,10
2017-08-01T06:28:12.428Z,5
2017-08-01T06:29:13.078Z,5
2017-08-01T06:30:12.828Z,5
2017-08-01T06:31:12.821Z,5
2017-08-01T06:32:12.840Z,5
2017-08-01T06:33:13.180Z,5
2017-08-01T06:34:13.231Z,10
2017-08-01T06:35:12.912Z,15
2017-08-01T06:36:13.266Z,20
2017-08-01T06:37:12.650Z,15
2017-08-01T06:38:12.996Z,20
2017-08-01T06:39:13.327Z,20
2017-08-01T06:40:13.090Z,20
2017-08-01T06:41:13.388Z,20
2017-08-01T06:42:13.084Z,20
2017-08-01T06:43:13.442Z,20
2017-08-01T06:44:13.476Z,25
2017-08-01T06:45:13.807Z,25
2017-08-01T06:46:13.505Z,30
2017-08-01T06:47:13.542Z,30
2017-08-01T06:48:13.550Z,35
2017-08-01T06:49:13.264Z,35
2017-08-01T06:50:13.304Z,30
2017-08-01T06:51:13.630Z,30
2017-08-01T06:52:13.657Z,30
2017-08-01T06:53:13.376Z,25
2017-08-01T06:54:13.715Z,25
2017-08-01T06:55:13.412Z,25
2017-08-01T06:56:13.441Z,25
2017-08-01T06:57:13.780Z,25
2017-08-01T06:58:13.515Z,25
2017-08-01T06:59:13.524Z,25
2017-08-01T07:00:13.534Z,25
2017-08-01T07:01:13.561Z,25
2017-08-01T07:02:13.598Z,25
2017-08-01T07:03:13.925Z,25
2017-08-01T07:04:13.957Z,25
2017-08-01T07:05:13.684Z,25
2017-08-01T07:06:13.376Z,20
2017-08-01T07:07:14.036Z,20
2017-08-01T07:08:13.735Z,20
2017-08-01T07:09:13.791Z,20
2017-08-01T07:10:13.484Z,20
2017-08-01T07:11:14.233Z,20
2017-08-01T07:12:14.266Z,15
2017-08-01T07:13:13.555Z,15
2017-08-01T07:14:14.349Z,10
2017-08-01T07:15:14.248Z,10
2017-08-01T07:16:14.392Z,10
2017-08-01T07:17:14.275Z,10
2017-08-01T07:18:13.997Z,10
2017-08-01T07:19:13.800Z,10
2017-08-01T07:20:14.559Z,10
2017-08-01T07:21:14.581Z,10
2017-08-01T07:22:14.085Z,5
2017-08-01T07:23:14.250Z,5
2017-08-01T07:24:14.248Z,10
2017-08-01T07:25:14.614Z,10
2017-08-01T07:26:14.713Z,10
2017-08-01T07:27:14.680Z,10
2017-08-01T07:28:14.561Z,10
2017-08-01T07:29:14.671Z,10
2017-08-01T07:30:14.152Z,10
2017-08-01T07:31:14.603Z,10
2017-08-01T07:32:14.349Z,15
2017-08-01T07:33:14.377Z,15
2017-08-01T07:34:14.605Z,15
2017-08-01T07:35:14.621Z,20
2017-08-01T07:36:14.448Z,20
2017-08-01T07:37:14.461Z,20
2017-08-01T07:38:14.611Z,20
2017-08-01T07:39:14.620Z,20
2017-08-01T07:40:14.551Z,25
2017-08-01T07:41:14.889Z,25
2017-08-01T07:42:14.591Z,25
2017-08-01T07:43:15.124Z,20
2017-08-01T07:44:14.642Z,20
2017-08-01T07:45:14.674Z,20
2017-08-01T07:46:15.021Z,20
2017-08-01T07:47:14.717Z,20
2017-08-01T07:48:15.072Z,15
2017-08-01T07:49:15.082Z,15
2017-08-01T07:50:15.205Z,15
2017-08-01T07:51:14.826Z,15
2017-08-01T07:52:14.535Z,20
2017-08-01T07:53:15.182Z,20
2017-08-01T07:54:15.407Z,25
2017-08-01T07:55:15.017Z,40
2017-08-01T07:56:15.270Z,40
2017-08-01T07:57:15.000Z,30
2017-08-01T07:58:14.717Z,30
2017-08-01T07:59:15.346Z,35
2017-08-01T08:00:14.735Z,35
2017-08-01T08:01:15.412Z,40
2017-08-01T08:02:15.228Z,45
2017-08-01T08:03:15.169Z,40
2017-08-01T08:04:15.470Z,40
2017-08-01T08:05:15.646Z,40
2017-08-01T08:06:15.337Z,35
2017-08-01T08:07:15.231Z,30
2017-08-01T08:08:15.571Z,35
2017-08-01T08:09:15.602Z,30
2017-08-01T08:10:15.319Z,25
2017-08-01T08:11:15.366Z,15
2017-08-01T08:12:15.684Z,10
2017-08-01T08:13:15.707Z,10
2017-08-01T08:14:15.747Z,10
2017-08-01T08:15:15.754Z,10
2017-08-01T08:16:15.613Z,10
2017-08-01T08:17:15.814Z,10
2017-08-01T08:18:15.519Z,10
2017-08-01T08:19:15.866Z,10
2017-08-01T08:20:15.581Z,15
2017-08-01T08:21:15.688Z,20
2017-08-01T08:22:15.631Z,20
2017-08-01T08:23:15.650Z,25
2017-08-01T08:24:16.005Z,30
2017-08-01T08:25:16.023Z,40
2017-08-01T08:26:15.719Z,40
2017-08-01T08:27:16.072Z,35
2017-08-01T08:28:15.773Z,30
2017-08-01T08:29:15.818Z,35
2017-08-01T08:30:15.201Z,35
2017-08-01T08:31:15.555Z,30
2017-08-01T08:32:16.216Z,30
2017-08-01T08:33:15.919Z,35
2017-08-01T08:34:15.950Z,40
2017-08-01T08:35:15.653Z,45
2017-08-01T08:36:15.990Z,50
2017-08-01T08:37:15.712Z,45
2017-08-01T08:38:16.488Z,35
2017-08-01T08:39:16.075Z,35
2017-08-01T08:40:16.103Z,30
2017-08-01T08:41:16.440Z,30
2017-08-01T08:42:16.156Z,35
2017-08-01T08:43:16.496Z,40
2017-08-01T08:44:16.520Z,30
2017-08-01T08:45:16.236Z,20
2017-08-01T08:46:15.947Z,15
2017-08-01T08:47:16.599Z,15
2017-08-01T08:48:16.396Z,20
2017-08-01T08:49:16.120Z,20
2017-08-01T08:50:16.371Z,20
2017-08-01T08:51:16.394Z,15
2017-08-01T08:52:16.735Z,15
2017-08-01T08:53:16.801Z,15
2017-08-01T08:54:16.159Z,20
2017-08-01T08:55:16.937Z,20
2017-08-01T08:56:15.993Z,20
2017-08-01T08:57:16.888Z,25
2017-08-01T08:58:16.701Z,30
2017-08-01T08:59:16.920Z,35
2017-08-01T09:00:16.960Z,40
2017-08-01T09:01:16.980Z,45
2017-08-01T09:02:16.692Z,45
2017-08-01T09:03:17.031Z,35
2017-08-01T09:04:17.063Z,25
2017-08-01T09:05:17.101Z,20
2017-08-01T09:06:16.798Z,20
2017-08-01T09:07:17.139Z,20
2017-08-01T09:08:16.872Z,20
2017-08-01T09:09:17.327Z,15
2017-08-01T09:10:17.432Z,15
2017-08-01T09:11:17.418Z,15
2017-08-01T09:12:16.967Z,15
2017-08-01T09:13:17.333Z,15
2017-08-01T09:14:17.275Z,15
2017-08-01T09:15:17.431Z,15
2017-08-01T09:16:17.483Z,15
2017-08-01T09:17:17.546Z,20
2017-08-01T09:18:17.246Z,20
2017-08-01T09:19:17.465Z,20
2017-08-01T09:20:17.635Z,20
2017-08-01T09:21:17.217Z,20
2017-08-01T09:22:17.568Z,20
2017-08-01T09:23:17.289Z,20
2017-08-01T09:24:16.996Z,20
2017-08-01T09:25:17.667Z,30
2017-08-01T09:26:17.385Z,30
2017-08-01T09:27:17.702Z,25
2017-08-01T09:28:16.887Z,20
2017-08-01T09:29:17.212Z,20
2017-08-01T09:30:17.556Z,20
2017-08-01T09:31:17.616Z,20
2017-08-01T09:32:18.110Z,20
2017-08-01T09:33:18.107Z,20
2017-08-01T09:34:17.738Z,20
2017-08-01T09:35:17.424Z,20
2017-08-01T09:36:18.105Z,20
2017-08-01T09:37:18.228Z,20
2017-08-01T09:38:17.574Z,20
2017-08-01T09:39:18.155Z,20
2017-08-01T09:40:17.572Z,20
2017-08-01T09:41:17.783Z,20
2017-08-01T09:42:17.801Z,20
2017-08-01T09:43:17.826Z,20
2017-08-01T09:44:18.180Z,20
2017-08-01T09:45:18.214Z,20
2017-08-01T09:46:17.916Z,20
2017-08-01T09:47:18.252Z,20
2017-08-01T09:48:18.291Z,20
2017-08-01T09:49:18.007Z,20
2017-08-01T09:50:18.365Z,25
2017-08-01T09:51:17.738Z,25
2017-08-01T09:52:18.089Z,25
2017-08-01T09:53:18.562Z,25
2017-08-01T09:54:18.159Z,25
2017-08-01T09:55:18.486Z,25
2017-08-01T09:56:18.528Z,25
2017-08-01T09:57:18.547Z,25
2017-08-01T09:58:18.696Z,25
2017-08-01T09:59:18.026Z,25
2017-08-01T10:00:18.752Z,25
2017-08-01T10:01:18.361Z,25
2017-08-01T10:02:18.131Z,25
2017-08-01T10:03:18.717Z,25
2017-08-01T10:04:18.200Z,25
2017-08-01T10:05:18.777Z,25
2017-08-01T10:06:18.067Z,25
2017-08-01T10:07:18.529Z,25
2017-08-01T10:08:18.270Z,25
2017-08-01T10:09:18.578Z,25
2017-08-01T10:10:18.287Z,25
2017-08-01T10:11:18.643Z,25
2017-08-01T10:12:19.085Z,25
2017-08-01T10:13:18.699Z,25
2017-08-01T10:14:19.109Z,25
2017-08-01T10:15:18.447Z,25
2017-08-01T10:16:18.901Z,25
2017-08-01T10:17:19.254Z,25
2017-08-01T10:18:18.954Z,25
2017-08-01T10:19:19.405Z,25
2017-08-01T10:20:19.224Z,25
2017-08-01T10:21:18.936Z,25
2017-08-01T10:22:19.066Z,25
2017-08-01T10:23:18.689Z,30
2017-08-01T10:24:19.071Z,30
2017-08-01T10:25:19.378Z,30
2017-08-01T10:26:18.769Z,30
2017-08-01T10:27:19.108Z,30
2017-08-01T10:28:19.259Z,30
2017-08-01T10:29:19.584Z,30
2017-08-01T10:30:19.096Z,30
2017-08-01T10:31:19.415Z,30
2017-08-01T10:32:19.579Z,30
2017-08-01T10:33:19.299Z,30
2017-08-01T10:34:19.329Z,30
2017-08-01T10:35:19.670Z,30
2017-08-01T10:36:19.390Z,30
2017-08-01T10:37:19.417Z,30
2017-08-01T10:38:19.775Z,30
2017-08-01T10:39:19.791Z,30
2017-08-01T10:40:19.832Z,30
2017-08-01T10:41:19.889Z,30
2017-08-01T10:42:19.561Z,30
2017-08-01T10:43:19.597Z,30
2017-08-01T10:44:19.935Z,30
2017-08-01T10:45:19.973Z,30
2017-08-01T10:46:20.001Z,30
2017-08-01T10:47:19.715Z,30
2017-08-01T10:48:20.073Z,30
2017-08-01T10:49:20.095Z,30
2017-08-01T10:50:19.814Z,30
2017-08-01T10:51:20.342Z,30
2017-08-01T10:52:20.351Z,35
2017-08-01T10:53:20.352Z,35
2017-08-01T10:54:20.258Z,35
2017-08-01T10:55:20.281Z,35
2017-08-01T10:56:20.317Z,35
2017-08-01T10:57:20.353Z,35
2017-08-01T10:58:20.059Z,35
2017-08-01T10:59:19.770Z,35
2017-08-01T11:00:20.453Z,35
2017-08-01T11:01:19.834Z,35
2017-08-01T11:02:20.187Z,35
2017-08-01T11:03:20.537Z,35
2017-08-01T11:04:20.561Z,35
2017-08-01T11:05:20.601Z,35
2017-08-01T11:06:19.992Z,35
2017-08-01T11:07:20.690Z,35
2017-08-01T11:08:20.066Z,35
2017-08-01T11:09:20.233Z,40
2017-08-01T11:10:20.882Z,35
2017-08-01T11:11:20.924Z,35
2017-08-01T11:12:20.820Z,35
2017-08-01T11:13:20.850Z,35
2017-08-01T11:14:20.874Z,35
2017-08-01T11:15:20.611Z,35
2017-08-01T11:16:20.316Z,35
2017-08-01T11:17:20.991Z,35
2017-08-01T11:18:21.015Z,40
2017-08-01T11:19:21.056Z,40
2017-08-01T11:20:21.086Z,40
2017-08-01T11:21:21.364Z,40
2017-08-01T11:22:21.047Z,40
2017-08-01T11:23:20.531Z,40
2017-08-01T11:24:21.377Z,40
2017-08-01T11:25:21.374Z,40
2017-08-01T11:26:20.979Z,40
2017-08-01T11:27:21.475Z,40
2017-08-01T11:28:21.016Z,40
2017-08-01T11:29:21.056Z,40
2017-08-01T11:30:20.765Z,40
2017-08-01T11:31:21.227Z,40
2017-08-01T11:32:21.470Z,40
2017-08-01T11:33:21.204Z,40
2017-08-01T11:34:21.428Z,40
2017-08-01T11:35:21.249Z,40
2017-08-01T11:36:21.270Z,40
2017-08-01T11:37:21.308Z,40
2017-08-01T11:38:21.354Z,40
2017-08-01T11:39:21.382Z,40
2017-08-01T11:40:21.726Z,45
2017-08-01T11:41:21.133Z,45
2017-08-01T11:42:21.165Z,45
2017-08-01T11:43:21.197Z,45
2017-08-01T11:44:21.871Z,45
2017-08-01T11:45:21.902Z,45
2017-08-01T11:46:21.621Z,45
2017-08-01T11:47:21.644Z,45
2017-08-01T11:48:22.000Z,45
2017-08-01T11:49:21.397Z,45
2017-08-01T11:50:22.061Z,45
2017-08-01T11:51:22.088Z,50
2017-08-01T11:52:22.122Z,50
2017-08-01T11:53:22.162Z,50
2017-08-01T11:54:22.197Z,55
2017-08-01T11:55:22.236Z,55
2017-08-01T11:56:21.631Z,60
2017-08-01T11:57:22.293Z,60
2017-08-01T11:58:22.319Z,55
2017-08-01T11:59:22.052Z,55
2017-08-01T12:00:22.071Z,50
2017-08-01T12:01:21.799Z,50
2017-08-01T12:02:21.831Z,50
2017-08-01T12:03:22.493Z,50
2017-08-01T12:04:22.211Z,55
2017-08-01T12:05:22.556Z,55
2017-08-01T12:06:22.310Z,60
2017-08-01T12:07:22.321Z,60
2017-08-01T12:08:22.674Z,65
2017-08-01T12:09:22.198Z,65
2017-08-01T12:10:22.416Z,70
2017-08-01T12:11:22.764Z,55
2017-08-01T12:12:22.862Z,75
2017-08-01T12:13:22.862Z,75
2017-08-01T12:14:23.005Z,65
2017-08-01T12:15:22.690Z,75
2017-08-01T12:16:22.959Z,80
2017-08-01T12:17:22.855Z,85
2017-08-01T12:18:22.690Z,80
2017-08-01T12:19:22.513Z,85
2017-08-01T12:20:23.189Z,75
2017-08-01T12:21:23.281Z,70
2017-08-01T12:22:23.272Z,70
2017-08-01T12:23:23.226Z,80
2017-08-01T12:24:23.214Z,70
2017-08-01T12:25:23.147Z,70
2017-08-01T12:26:23.437Z,75
2017-08-01T12:27:23.079Z,65
2017-08-01T12:28:23.043Z,90
2017-08-01T12:29:22.762Z,90
2017-08-01T12:30:23.436Z,85
2017-08-01T12:31:23.459Z,80
2017-08-01T12:32:23.520Z,75
2017-08-01T12:33:23.541Z,75
2017-08-01T12:34:23.580Z,70
2017-08-01T12:35:23.294Z,60
2017-08-01T12:36:23.646Z,45
2017-08-01T12:37:23.679Z,85
2017-08-01T12:38:23.707Z,90
2017-08-01T12:39:23.769Z,90
2017-08-01T12:40:23.782Z,90
2017-08-01T12:41:23.813Z,65
2017-08-01T12:42:23.857Z,65
2017-08-01T12:43:23.893Z,85
2017-08-01T12:44:23.949Z,90
2017-08-01T12:45:23.967Z,90
2017-08-01T12:46:24.010Z,100
2017-08-01T12:47:24.038Z,95
2017-08-01T12:48:23.755Z,85
2017-08-01T12:49:23.786Z,70
2017-08-01T12:50:24.204Z,85
2017-08-01T12:51:23.546Z,80
2017-08-01T12:52:24.124Z,65
2017-08-01T12:53:23.932Z,65
2017-08-01T12:54:24.278Z,65
2017-08-01T12:55:24.011Z,65
2017-08-01T12:56:24.358Z,60
2017-08-01T12:57:24.403Z,55
2017-08-01T12:58:24.122Z,55
2017-08-01T12:59:24.495Z,60
2017-08-01T13:00:24.722Z,60
2017-08-01T13:01:24.656Z,60
2017-08-01T13:02:24.769Z,65
2017-08-01T13:03:24.776Z,60
2017-08-01T13:04:24.766Z,60
2017-08-01T13:05:24.791Z,65
2017-08-01T13:06:24.117Z,65
2017-08-01T13:07:24.455Z,60
2017-08-01T13:08:24.185Z,80
2017-08-01T13:09:24.531Z,80
2017-08-01T13:10:24.558Z,75
2017-08-01T13:11:24.905Z,70
2017-08-01T13:12:24.308Z,60
2017-08-01T13:13:24.671Z,60
2017-08-01T13:14:25.017Z,70
2017-08-01T13:15:25.110Z,85
2017-08-01T13:16:24.768Z,80
2017-08-01T13:17:24.814Z,75
2017-08-01T13:18:25.170Z,70
2017-08-01T13:19:24.987Z,70
2017-08-01T13:20:24.967Z,65
2017-08-01T13:21:25.403Z,70
2017-08-01T13:22:25.421Z,75
2017-08-01T13:23:25.233Z,80
2017-08-01T13:24:25.673Z,75
2017-08-01T13:25:25.268Z,80
2017-08-01T13:26:25.681Z,85
2017-08-01T13:27:25.981Z,85
2017-08-01T13:28:25.680Z,90
2017-08-01T13:29:25.838Z,75
2017-08-01T13:30:25.439Z,70
2017-08-01T13:31:25.404Z,80
2017-08-01T13:32:25.784Z,95
2017-08-01T13:33:25.526Z,80
2017-08-01T13:34:25.682Z,75
2017-08-01T13:35:25.838Z,95
2017-08-01T13:36:26.058Z,90
2017-08-01T13:37:25.667Z,85
2017-08-01T13:38:25.804Z,75
2017-08-01T13:39:25.944Z,70
2017-08-01T13:40:26.141Z,45
2017-08-01T13:41:25.764Z,80
2017-08-01T13:42:25.942Z,100
2017-08-01T13:43:25.784Z,110
2017-08-01T13:44:25.813Z,110
2017-08-01T13:45:25.855Z,95
2017-08-01T13:46:26.211Z,95
2017-08-01T13:47:25.928Z,55
2017-08-01T13:48:26.287Z,60
2017-08-01T13:49:26.015Z,85
2017-08-01T13:50:26.355Z,75
2017-08-01T13:51:26.196Z,75
2017-08-01T13:52:26.119Z,90
2017-08-01T13:53:26.478Z,75
2017-08-01T13:54:26.199Z,50
2017-08-01T13:55:26.635Z,40
2017-08-01T13:56:26.667Z,50
2017-08-01T13:57:26.674Z,60
2017-08-01T13:58:26.670Z,95
2017-08-01T13:59:26.802Z,100
2017-08-01T14:00:26.106Z,80
2017-08-01T14:01:26.264Z,50
2017-08-01T14:02:26.592Z,50
2017-08-01T14:03:26.946Z,45
2017-08-01T14:04:26.358Z,50
2017-08-01T14:05:26.714Z,50
2017-08-01T14:06:27.156Z,55
2017-08-01T14:07:26.858Z,70
2017-08-01T14:08:26.856Z,80
2017-08-01T14:09:27.019Z,85
2017-08-01T14:10:27.018Z,85
2017-08-01T14:11:27.248Z,85
2017-08-01T14:12:26.647Z,85
2017-08-01T14:13:27.309Z,60
2017-08-01T14:14:27.305Z,70
2017-08-01T14:15:27.320Z,65
2017-08-01T14:16:27.361Z,65
2017-08-01T14:17:27.498Z,65
2017-08-01T14:18:27.254Z,65
2017-08-01T14:19:27.670Z,65
2017-08-01T14:20:27.505Z,65
2017-08-01T14:21:27.228Z,55
2017-08-01T14:22:27.585Z,65
2017-08-01T14:23:27.318Z,65
2017-08-01T14:24:27.655Z,65
2017-08-01T14:25:27.384Z,65
2017-08-01T14:26:27.736Z,60
2017-08-01T14:27:27.770Z,60
2017-08-01T14:28:27.504Z,70
2017-08-01T14:29:27.748Z,80